createdAt,value
2019-06-10T00:01:21.254Z,16.82
2019-06-10T00:03:51.428Z,16.76
2019-06-10T00:06:20.986Z,16.60
2019-06-10T00:08:50.617Z,16.56
2019-06-10T00:11:21.304Z,16.58
2019-06-10T00:13:50.695Z,16.62
2019-06-10T00:16:20.870Z,16.62
2019-06-10T00:18:50.993Z,16.72
2019-06-10T00:21:21.690Z,16.69
2019-06-10T00:23:51.858Z,16.67
2019-06-10T00:26:21.642Z,16.71
2019-06-10T00:28:51.362Z,16.64
2019-06-10T00:31:20.730Z,16.69
2019-06-10T00:33:51.766Z,16.67
2019-06-10T00:36:21.536Z,16.63
2019-06-10T00:38:51.819Z,16.56
2019-06-10T00:41:21.963Z,16.63
2019-06-10T00:43:51.742Z,16.57
2019-06-10T00:46:21.209Z,16.57
2019-06-10T00:48:50.895Z,16.56
2019-06-10T00:51:20.989Z,16.56
2019-06-10T00:53:51.438Z,16.55
2019-06-10T00:56:21.640Z,16.51
2019-06-10T00:58:51.442Z,16.47
2019-06-10T01:01:22.000Z,16.50
2019-06-10T01:03:50.963Z,16.50
2019-06-10T01:06:21.397Z,16.41
2019-06-10T01:08:51.228Z,16.43
2019-06-10T01:11:26.466Z,16.35
2019-06-10T01:13:50.857Z,16.37
2019-06-10T01:16:21.489Z,16.33
2019-06-10T01:18:52.637Z,16.30
2019-06-10T01:21:41.434Z,16.30
2019-06-10T01:24:11.639Z,16.31
2019-06-10T01:26:41.163Z,16.29
2019-06-10T01:29:10.292Z,16.33
2019-06-10T01:31:41.842Z,16.36
2019-06-10T01:34:11.995Z,16.36
2019-06-10T01:36:40.569Z,16.35
2019-06-10T01:39:11.606Z,16.32
2019-06-10T01:41:40.971Z,16.29
2019-06-10T01:44:11.552Z,16.30
2019-06-10T01:46:41.049Z,16.28
2019-06-10T01:49:11.742Z,16.25
2019-06-10T01:51:41.222Z,16.25
2019-06-10T01:54:11.965Z,16.25
2019-06-10T01:56:40.851Z,16.27
2019-06-10T01:59:12.260Z,16.32
2019-06-10T02:01:54.985Z,16.28
2019-06-10T02:04:23.413Z,16.31
2019-06-10T02:06:51.835Z,16.32
2019-06-10T02:09:23.043Z,16.40
2019-06-10T02:11:51.380Z,16.42
2019-06-10T02:14:23.931Z,16.46
2019-06-10T02:16:50.676Z,16.36
2019-06-10T02:19:22.745Z,16.46
2019-06-10T02:21:51.058Z,16.46
2019-06-10T02:24:22.042Z,16.50
2019-06-10T02:26:51.627Z,16.64
2019-06-10T02:29:22.196Z,16.61
2019-06-10T02:31:52.124Z,16.57
2019-06-10T02:34:26.883Z,16.51
2019-06-10T02:36:53.645Z,16.51
2019-06-10T02:39:28.033Z,16.43
2019-06-10T02:41:53.690Z,16.34
2019-06-10T02:44:31.883Z,16.29
2019-06-10T02:46:54.495Z,16.34
2019-06-10T02:49:42.800Z,16.33
2019-06-10T02:52:22.653Z,16.24
2019-06-10T02:54:48.531Z,16.13
2019-06-10T02:57:18.776Z,16.13
2019-06-10T02:59:47.314Z,16.06
2019-06-10T03:02:15.739Z,16.05
2019-06-10T03:04:44.149Z,16.02
2019-06-10T03:07:13.717Z,16.04
2019-06-10T03:09:42.821Z,15.98
2019-06-10T03:12:12.226Z,15.99
2019-06-10T03:14:42.264Z,16.01
2019-06-10T03:17:15.656Z,15.96
2019-06-10T03:19:50.342Z,15.89
2019-06-10T03:22:14.317Z,15.82
2019-06-10T03:24:42.740Z,15.85
2019-06-10T03:27:12.660Z,15.78
2019-06-10T03:29:42.149Z,15.84
2019-06-10T03:32:14.489Z,15.85
2019-06-10T03:34:45.906Z,15.81
2019-06-10T03:37:12.803Z,15.78
2019-06-10T03:39:42.728Z,15.81
2019-06-10T03:42:12.614Z,15.76
2019-06-10T03:44:43.074Z,15.73
2019-06-10T03:47:12.175Z,15.62
2019-06-10T03:49:49.984Z,15.62
2019-06-10T03:52:12.969Z,15.59
2019-06-10T03:54:43.845Z,15.60
2019-06-10T03:57:12.292Z,15.65
2019-06-10T03:59:42.228Z,15.59
2019-06-10T04:02:12.744Z,15.65
2019-06-10T04:04:42.841Z,15.66
2019-06-10T04:07:14.127Z,15.68
2019-06-10T04:09:42.497Z,15.74
2019-06-10T04:12:32.587Z,15.88
2019-06-10T04:15:02.893Z,15.98
2019-06-10T04:17:33.156Z,16.03
2019-06-10T04:20:09.276Z,16.01
2019-06-10T04:22:32.948Z,16.03
2019-06-10T04:25:03.083Z,16.04
2019-06-10T04:27:32.862Z,15.96
2019-06-10T04:30:03.263Z,16.06
2019-06-10T04:32:32.250Z,16.11
2019-06-10T04:35:02.271Z,16.12
2019-06-10T04:37:32.546Z,16.22
2019-06-10T04:40:02.885Z,16.28
2019-06-10T04:42:32.958Z,16.19
2019-06-10T04:45:03.163Z,16.32
2019-06-10T04:47:33.250Z,16.59
2019-06-10T04:50:03.141Z,16.71
2019-06-10T04:52:32.880Z,16.70
2019-06-10T04:55:04.457Z,16.81
2019-06-10T04:57:33.015Z,16.75
2019-06-10T05:00:04.084Z,16.81
2019-06-10T05:02:33.043Z,16.81
2019-06-10T05:05:02.926Z,16.98
2019-06-10T05:07:36.505Z,17.13
2019-06-10T05:10:03.278Z,17.19
2019-06-10T05:12:32.785Z,17.32
2019-06-10T05:15:03.568Z,17.28
2019-06-10T05:17:34.083Z,17.37
2019-06-10T05:20:02.548Z,17.52
2019-06-10T05:22:32.819Z,17.56
2019-06-10T05:25:02.519Z,17.49
2019-06-10T05:27:32.984Z,17.31
2019-06-10T05:30:02.258Z,17.21
2019-06-10T05:32:33.273Z,17.17
2019-06-10T05:35:03.510Z,17.10
2019-06-10T05:37:33.667Z,17.24
2019-06-10T05:40:02.224Z,17.24
2019-06-10T05:42:34.036Z,17.35
2019-06-10T05:45:03.162Z,17.45
2019-06-10T05:47:35.630Z,17.55
2019-06-10T05:50:03.266Z,17.81
2019-06-10T05:52:33.817Z,18.02
2019-06-10T05:55:02.940Z,17.93
2019-06-10T05:57:33.500Z,17.96
2019-06-10T06:00:10.728Z,18.14
2019-06-10T06:02:33.973Z,18.09
2019-06-10T06:05:02.656Z,18.21
2019-06-10T06:07:33.885Z,18.26
2019-06-10T06:10:02.476Z,18.34
2019-06-10T06:12:33.899Z,18.51
2019-06-10T06:15:02.428Z,18.65
2019-06-10T06:17:32.770Z,18.77
2019-06-10T06:20:02.723Z,18.78
2019-06-10T06:22:33.776Z,18.66
2019-06-10T06:25:03.705Z,18.72
2019-06-10T06:27:33.824Z,18.55
2019-06-10T06:30:06.989Z,18.48
2019-06-10T06:32:33.687Z,18.43
2019-06-10T06:35:02.276Z,18.44
2019-06-10T06:37:34.699Z,18.52
2019-06-10T06:40:02.790Z,18.52
2019-06-10T06:42:33.528Z,18.47
2019-06-10T06:45:03.038Z,18.47
2019-06-10T06:47:34.029Z,18.42
2019-06-10T06:50:02.685Z,18.47
2019-06-10T06:53:07.623Z,18.54
2019-06-10T06:55:23.258Z,18.53
2019-06-10T06:57:52.861Z,18.67
2019-06-10T07:00:43.122Z,18.74
2019-06-10T07:02:55.886Z,18.78
2019-06-10T07:05:24.297Z,18.83
2019-06-10T07:07:52.801Z,18.86
2019-06-10T07:10:24.261Z,18.93
2019-06-10T07:12:52.849Z,18.86
2019-06-10T07:15:26.289Z,18.84
2019-06-10T07:17:55.057Z,18.92
2019-06-10T07:20:23.507Z,18.91
2019-06-10T07:22:53.287Z,18.89
2019-06-10T07:25:22.966Z,18.78
2019-06-10T07:27:52.685Z,18.70
2019-06-10T07:30:22.970Z,18.76
2019-06-10T07:32:52.826Z,18.93
2019-06-10T07:35:22.186Z,19.04
2019-06-10T07:37:52.357Z,19.18
2019-06-10T07:40:22.278Z,19.11
2019-06-10T07:42:52.904Z,19.11
2019-06-10T07:45:22.114Z,19.18
2019-06-10T07:47:52.312Z,19.16
2019-06-10T07:50:22.721Z,19.25
2019-06-10T07:52:52.922Z,19.30
2019-06-10T07:55:22.168Z,19.32
2019-06-10T07:57:52.924Z,19.41
2019-06-10T08:00:22.737Z,19.48
2019-06-10T08:02:52.989Z,19.59
2019-06-10T08:05:23.411Z,19.74
2019-06-10T08:07:51.406Z,19.83
2019-06-10T08:10:19.927Z,19.87
2019-06-10T08:12:48.489Z,20.02
2019-06-10T08:15:16.938Z,20.11
2019-06-10T08:17:45.761Z,20.25
2019-06-10T08:20:18.861Z,20.45
2019-06-10T08:22:52.515Z,20.57
2019-06-10T08:25:17.449Z,20.59
2019-06-10T08:27:47.808Z,20.89
2019-06-10T08:30:23.191Z,21.22
2019-06-10T08:32:46.839Z,21.48
2019-06-10T08:35:16.707Z,21.37
2019-06-10T08:37:46.294Z,21.55
2019-06-10T08:40:15.526Z,21.61
2019-06-10T08:42:46.812Z,21.73
2019-06-10T08:45:14.076Z,21.53
2019-06-10T08:47:45.694Z,21.46
2019-06-10T08:50:13.008Z,21.34
2019-06-10T08:52:56.037Z,21.24
2019-06-10T08:55:33.335Z,21.38
2019-06-10T08:58:02.803Z,21.61
2019-06-10T09:00:33.231Z,21.82
2019-06-10T09:03:04.002Z,21.72
2019-06-10T09:05:32.523Z,21.61
2019-06-10T09:08:02.836Z,21.90
2019-06-10T09:10:33.790Z,22.20
2019-06-10T09:13:22.381Z,22.39
2019-06-10T09:16:10.529Z,22.63
2019-06-10T09:18:23.226Z,22.90
2019-06-10T09:20:55.305Z,23.03
2019-06-10T09:23:23.153Z,23.03
2019-06-10T09:25:54.457Z,22.71
2019-06-10T09:28:23.480Z,22.92
2019-06-10T09:30:58.493Z,22.82
2019-06-10T09:33:23.057Z,22.84
2019-06-10T09:35:54.848Z,22.47
2019-06-10T09:38:22.307Z,22.37
2019-06-10T09:40:59.217Z,22.14
2019-06-10T09:43:22.690Z,22.01
2019-06-10T09:45:55.427Z,21.82
2019-06-10T09:48:22.966Z,21.96
2019-06-10T09:50:57.951Z,22.06
2019-06-10T09:53:33.526Z,22.12
2019-06-10T09:55:55.416Z,22.04
2019-06-10T09:58:23.195Z,22.10
2019-06-10T10:00:57.580Z,22.19
2019-06-10T10:03:23.931Z,22.24
2019-06-10T10:05:59.286Z,22.12
2019-06-10T10:08:23.758Z,22.14
2019-06-10T10:10:58.488Z,22.16
2019-06-10T10:13:22.679Z,22.35
2019-06-10T10:15:53.875Z,22.72
2019-06-10T10:18:23.392Z,23.03
2019-06-10T10:20:56.530Z,23.08
2019-06-10T10:23:22.663Z,23.25
2019-06-10T10:25:56.592Z,23.32
2019-06-10T10:28:23.058Z,23.30
2019-06-10T10:30:57.221Z,23.41
2019-06-10T10:33:26.849Z,23.54
2019-06-10T10:36:13.269Z,23.69
2019-06-10T10:38:42.693Z,23.84
2019-06-10T10:41:13.407Z,23.83
2019-06-10T10:43:43.610Z,23.53
2019-06-10T10:46:13.850Z,23.37
2019-06-10T10:48:42.890Z,23.13
2019-06-10T10:51:13.022Z,23.17
2019-06-10T10:53:48.261Z,23.17
2019-06-10T10:56:14.307Z,22.71
2019-06-10T10:58:45.332Z,22.71
2019-06-10T11:01:15.151Z,22.52
2019-06-10T11:03:46.119Z,22.41
2019-06-10T11:06:14.882Z,22.43
2019-06-10T11:08:45.295Z,22.49
2019-06-10T11:11:13.909Z,22.71
2019-06-10T11:13:43.237Z,22.98
2019-06-10T11:16:11.955Z,23.08
2019-06-10T11:18:42.311Z,23.07
2019-06-10T11:21:13.028Z,23.25
2019-06-10T11:23:43.628Z,23.25
2019-06-10T11:26:12.965Z,23.16
2019-06-10T11:28:42.865Z,23.23
2019-06-10T11:31:13.947Z,23.26
2019-06-10T11:33:43.531Z,23.20
2019-06-10T11:36:31.366Z,23.28
2019-06-10T11:38:59.816Z,23.21
2019-06-10T11:41:28.526Z,23.41
2019-06-10T11:43:59.241Z,23.53
2019-06-10T11:46:27.166Z,23.66
2019-06-10T11:48:57.625Z,23.61
2019-06-10T11:51:25.715Z,23.55
2019-06-10T11:53:57.144Z,23.75
2019-06-10T11:56:24.603Z,23.81
2019-06-10T11:58:59.173Z,23.59
2019-06-10T12:01:28.383Z,23.70
2019-06-10T12:03:58.824Z,23.91
2019-06-10T12:06:46.282Z,24.03
2019-06-10T12:09:14.712Z,24.47
2019-06-10T12:11:43.894Z,24.69
2019-06-10T12:14:12.961Z,24.57
2019-06-10T12:19:12.775Z,24.42
2019-06-10T12:21:43.466Z,24.40
2019-06-10T12:24:12.726Z,24.17
2019-06-10T12:26:43.452Z,24.11
2019-06-10T12:29:12.382Z,24.08
2019-06-10T12:31:42.756Z,24.16
2019-06-10T12:34:12.489Z,24.62
2019-06-10T12:36:41.237Z,24.89
2019-06-10T12:39:10.730Z,25.08
2019-06-10T12:41:42.672Z,25.07
2019-06-10T12:44:12.096Z,25.10
2019-06-10T12:46:40.097Z,24.86
2019-06-10T12:49:08.882Z,24.55
2019-06-10T12:51:37.401Z,24.14
2019-06-10T12:54:06.552Z,23.79
2019-06-10T12:56:35.147Z,23.75
2019-06-10T12:59:09.650Z,23.57
2019-06-10T13:01:33.736Z,23.40
2019-06-10T13:04:05.421Z,23.15
2019-06-10T13:06:33.006Z,23.02
2019-06-10T13:09:23.428Z,22.63
2019-06-10T13:11:53.252Z,22.21
2019-06-10T13:14:22.042Z,21.73
2019-06-10T13:16:52.657Z,21.72
2019-06-10T13:19:23.168Z,22.14
2019-06-10T13:21:52.931Z,22.55
2019-06-10T13:24:22.506Z,22.73
2019-06-10T13:26:52.348Z,23.28
2019-06-10T13:29:21.003Z,23.75
2019-06-10T13:31:49.404Z,23.87
2019-06-10T13:34:22.129Z,23.69
2019-06-10T13:36:52.856Z,23.67
2019-06-10T13:39:22.305Z,23.81
2019-06-10T13:41:52.713Z,24.01
2019-06-10T13:44:22.814Z,23.75
2019-06-10T13:47:12.619Z,23.65
2019-06-10T13:49:42.692Z,23.94
2019-06-10T13:52:32.026Z,23.87
2019-06-10T13:55:01.299Z,23.92
2019-06-10T13:57:32.104Z,24.03
2019-06-10T14:00:02.731Z,24.27
2019-06-10T14:02:32.316Z,24.61
2019-06-10T14:05:03.536Z,24.84
2019-06-10T14:07:32.455Z,24.58
2019-06-10T14:10:04.003Z,24.53
2019-06-10T14:12:32.387Z,24.46
2019-06-10T14:15:04.117Z,24.43
2019-06-10T14:17:32.876Z,24.62
2019-06-10T14:20:01.753Z,24.56
2019-06-10T14:22:32.746Z,24.41
2019-06-10T14:25:02.781Z,24.50
2019-06-10T14:27:30.603Z,24.54
2019-06-10T14:29:59.057Z,24.44
2019-06-10T14:32:27.507Z,24.32
2019-06-10T14:34:55.909Z,24.36
2019-06-10T14:37:35.703Z,24.19
2019-06-10T14:39:54.470Z,24.05
2019-06-10T14:42:23.203Z,24.18
2019-06-10T14:44:52.644Z,24.46
2019-06-10T14:47:27.260Z,24.45
2019-06-10T14:49:55.685Z,24.19
2019-06-10T14:52:24.092Z,24.00
2019-06-10T14:54:53.269Z,23.80
2019-06-10T14:57:22.860Z,23.81
2019-06-10T14:59:53.209Z,23.65
2019-06-10T15:02:21.645Z,23.59
2019-06-10T15:04:53.008Z,23.43
2019-06-10T15:07:23.595Z,23.24
2019-06-10T15:09:52.591Z,22.80
2019-06-10T15:12:22.819Z,22.61
2019-06-10T15:14:52.100Z,22.39
2019-06-10T15:17:20.712Z,22.12
2019-06-10T15:19:49.121Z,21.89
2019-06-10T15:22:17.558Z,21.54
2019-06-10T15:24:45.980Z,21.38
2019-06-10T15:27:23.697Z,20.87
2019-06-10T15:29:44.556Z,19.10
2019-06-10T15:32:20.629Z,18.19
2019-06-10T15:34:43.118Z,17.33
2019-06-10T15:37:15.128Z,14.70
2019-06-10T15:39:42.379Z,15.55
2019-06-10T15:42:11.478Z,15.24
2019-06-10T15:44:58.531Z,15.45
2019-06-10T15:47:26.733Z,15.65
2019-06-10T15:49:55.300Z,15.87
2019-06-10T15:52:25.124Z,15.95
2019-06-10T15:54:53.908Z,16.19
2019-06-10T15:57:34.858Z,16.47
2019-06-10T15:59:52.460Z,16.72
2019-06-10T16:02:24.983Z,17.02
2019-06-10T16:04:52.701Z,17.24
2019-06-10T16:07:25.288Z,17.43
2019-06-10T16:09:53.335Z,17.11
2019-06-10T16:12:26.591Z,17.63
2019-06-10T16:14:52.995Z,17.98
2019-06-10T16:17:21.668Z,17.95
2019-06-10T16:19:52.828Z,17.32
2019-06-10T16:22:22.271Z,17.64
2019-06-10T16:24:52.579Z,17.34
2019-06-10T16:27:23.024Z,17.23
2019-06-10T16:29:53.056Z,17.14
2019-06-10T16:32:23.618Z,17.39
2019-06-10T16:34:52.225Z,17.53
2019-06-10T16:37:23.425Z,17.32
2019-06-10T16:39:52.483Z,17.49
2019-06-10T16:42:25.418Z,17.48
2019-06-10T16:45:12.820Z,17.62
2019-06-10T16:47:43.084Z,17.79
2019-06-10T16:50:12.193Z,17.21
2019-06-10T16:52:43.130Z,17.19
2019-06-10T16:55:12.766Z,17.25
2019-06-10T16:57:41.057Z,17.15
2019-06-10T17:00:13.886Z,17.18
2019-06-10T17:02:42.532Z,17.29
2019-06-10T17:05:10.027Z,17.16
2019-06-10T17:07:38.700Z,17.16
2019-06-10T17:10:07.456Z,17.26
2019-06-10T17:12:35.879Z,17.26
2019-06-10T17:15:04.977Z,17.52
2019-06-10T17:17:52.736Z,17.83
2019-06-10T17:20:23.291Z,18.06
2019-06-10T17:22:52.442Z,18.22
2019-06-10T17:25:23.539Z,18.12
2019-06-10T17:27:52.700Z,17.88
2019-06-10T17:30:23.384Z,17.81
2019-06-10T17:32:53.312Z,17.81
2019-06-10T17:35:22.001Z,18.03
2019-06-10T17:37:52.315Z,18.19
2019-06-10T17:40:23.466Z,17.90
2019-06-10T17:42:53.267Z,17.93
2019-06-10T17:45:25.762Z,17.95
2019-06-10T17:47:52.500Z,18.03
2019-06-10T17:50:22.319Z,18.25
2019-06-10T17:52:53.400Z,18.40
2019-06-10T17:55:24.717Z,18.35
2019-06-10T17:57:51.712Z,18.29
2019-06-10T18:00:20.139Z,18.25
2019-06-10T18:02:48.562Z,18.35
2019-06-10T18:05:17.054Z,18.40
2019-06-10T18:07:45.482Z,18.41
2019-06-10T18:10:13.976Z,18.07
2019-06-10T18:12:42.441Z,17.88
2019-06-10T18:15:12.531Z,17.64
2019-06-10T18:17:42.579Z,17.59
2019-06-10T18:20:13.578Z,17.82
2019-06-10T18:22:41.608Z,17.90
2019-06-10T18:25:12.336Z,18.00
2019-06-10T18:27:40.664Z,18.25
2019-06-10T18:30:13.321Z,18.22
2019-06-10T18:32:39.307Z,18.14
2019-06-10T18:35:27.837Z,18.11
2019-06-10T18:37:56.369Z,18.15
2019-06-10T18:40:31.677Z,18.24
2019-06-10T18:42:59.967Z,17.81
2019-06-10T18:45:29.729Z,17.60
2019-06-10T18:47:58.276Z,17.60
2019-06-10T18:50:27.794Z,17.60
2019-06-10T18:52:58.680Z,17.47
2019-06-10T18:55:26.681Z,17.37
2019-06-10T18:57:55.341Z,17.34
2019-06-10T19:00:23.796Z,17.35
2019-06-10T19:03:08.770Z,17.31
2019-06-10T19:05:22.528Z,17.24
2019-06-10T19:07:52.919Z,17.19
2019-06-10T19:10:23.092Z,17.14
2019-06-10T19:12:53.134Z,17.29
2019-06-10T19:15:21.636Z,17.29
2019-06-10T19:17:50.076Z,17.25
2019-06-10T19:20:18.494Z,17.39
2019-06-10T19:22:47.497Z,17.47
2019-06-10T19:25:16.993Z,17.41
2019-06-10T19:27:45.406Z,17.40
2019-06-10T19:30:13.842Z,17.65
2019-06-10T19:32:44.232Z,17.92
2019-06-10T19:35:13.078Z,18.04
2019-06-10T19:37:42.366Z,18.10
2019-06-10T19:40:12.362Z,18.20
2019-06-10T19:42:43.383Z,18.25
2019-06-10T19:45:12.547Z,18.34
2019-06-10T19:47:45.284Z,18.36
2019-06-10T19:50:12.211Z,18.36
2019-06-10T19:52:43.660Z,18.27
2019-06-10T19:55:13.101Z,18.21
2019-06-10T19:57:41.527Z,18.19
2019-06-10T20:00:29.525Z,18.13
2019-06-10T20:02:58.210Z,18.14
2019-06-10T20:05:26.652Z,18.11
2019-06-10T20:07:55.089Z,18.12
2019-06-10T20:10:23.536Z,18.11
2019-06-10T20:12:53.710Z,18.17
2019-06-10T20:15:23.060Z,18.13
2019-06-10T20:17:52.566Z,18.07
2019-06-10T20:20:22.575Z,18.09
2019-06-10T20:22:53.308Z,18.08
2019-06-10T20:25:22.377Z,17.96
2019-06-10T20:27:52.418Z,17.96
2019-06-10T20:30:27.506Z,17.89
2019-06-10T20:32:52.804Z,17.85
2019-06-10T20:35:23.285Z,17.92
2019-06-10T20:37:53.842Z,17.85
2019-06-10T20:40:22.169Z,17.65
2019-06-10T20:42:50.610Z,17.66
2019-06-10T20:45:19.170Z,17.62
2019-06-10T20:47:47.994Z,17.63
2019-06-10T20:50:17.360Z,17.56
2019-06-10T20:52:47.202Z,17.55
2019-06-10T20:55:16.965Z,17.54
2019-06-10T20:57:54.918Z,17.53
2019-06-10T21:00:26.486Z,17.49
2019-06-10T21:02:55.001Z,17.48
2019-06-10T21:05:23.441Z,17.44
2019-06-10T21:07:51.912Z,17.48
2019-06-10T21:10:24.309Z,17.48
2019-06-10T21:12:52.737Z,17.53
2019-06-10T21:15:22.822Z,17.50
2019-06-10T21:17:51.469Z,17.54
2019-06-10T21:20:22.139Z,17.55
2019-06-10T21:22:51.432Z,17.33
2019-06-10T21:25:20.196Z,17.23
2019-06-10T21:27:49.714Z,17.41
2019-06-10T21:30:34.072Z,17.40
2019-06-10T21:32:50.854Z,17.41
2019-06-10T21:35:19.362Z,17.38
2019-06-10T21:37:48.352Z,17.38
2019-06-10T21:40:18.102Z,17.34
2019-06-10T21:42:46.512Z,17.10
2019-06-10T21:45:15.258Z,16.93
2019-06-10T21:47:44.475Z,16.42
2019-06-10T21:50:14.208Z,16.41
2019-06-10T21:52:44.628Z,16.60
2019-06-10T21:55:13.532Z,16.81
2019-06-10T21:57:42.995Z,17.00
2019-06-10T22:00:14.896Z,16.77
2019-06-10T22:02:45.135Z,16.42
2019-06-10T22:05:13.674Z,16.63
2019-06-10T22:08:03.184Z,16.45
2019-06-10T22:10:33.563Z,16.50
2019-06-10T22:13:03.217Z,16.55
2019-06-10T22:15:33.421Z,16.74
2019-06-10T22:18:02.314Z,17.01
2019-06-10T22:20:32.456Z,17.13
2019-06-10T22:23:02.627Z,17.15
2019-06-10T22:25:32.839Z,17.23
2019-06-10T22:28:02.764Z,17.24
2019-06-10T22:30:32.145Z,17.30
2019-06-10T22:33:03.148Z,17.35
2019-06-10T22:35:31.355Z,17.37
2019-06-10T22:37:59.769Z,17.36
2019-06-10T22:40:28.528Z,17.36
2019-06-10T22:42:56.948Z,17.34
2019-06-10T22:45:28.444Z,17.41
2019-06-10T22:47:56.951Z,17.45
2019-06-10T22:50:25.452Z,17.49
2019-06-10T22:52:57.043Z,17.37
2019-06-10T22:55:24.028Z,17.16
2019-06-10T22:57:57.318Z,17.37
2019-06-10T23:00:43.711Z,17.45
2019-06-10T23:03:13.045Z,17.47
2019-06-10T23:06:02.627Z,17.53
2019-06-10T23:08:33.267Z,17.53
2019-06-10T23:11:02.797Z,17.51
2019-06-10T23:13:31.481Z,17.55
2019-06-10T23:16:02.433Z,17.55
2019-06-10T23:18:31.996Z,17.55
2019-06-10T23:21:01.556Z,17.56
2019-06-10T23:23:32.466Z,17.56
2019-06-10T23:26:02.775Z,17.59
2019-06-10T23:28:32.729Z,17.58
2019-06-10T23:31:02.423Z,17.55
2019-06-10T23:33:32.385Z,17.56
2019-06-10T23:36:03.766Z,17.56
2019-06-10T23:38:32.900Z,17.54
2019-06-10T23:41:03.548Z,17.50
2019-06-10T23:43:33.001Z,17.50
2019-06-10T23:46:04.094Z,17.35
2019-06-10T23:48:32.970Z,17.28
2019-06-10T23:51:04.525Z,17.38
2019-06-10T23:53:32.862Z,17.25
2019-06-10T23:56:04.716Z,17.25
2019-06-10T23:58:32.887Z,17.17
